OJAQ/AQJ METAR and TAF weather

Enter ICAO airport designator
Station Type Date Time Source
OJAQ METAR 2020/08/10 18:00 UTC NOAA

OJAQ 101800Z 35012KT CAVOK 36/17 Q1006 NOSIG


Station Type Date Time Source
OJAQ Decoded METAR 2020/08/10 18:00 UTC NOAA

Aqaba Airport, Jordan (OJAQ) 29-38N 035-01E 51M
Aug 10, 2020 - 02:00 PM EDT / 2020.08.10 1800 UTC
Wind: from the N (350 degrees) at 14 MPH (12 KT):0
Visibility: greater than 7 mile(s):0
Temperature: 96 F (36 C)
Heat index: 96.8 F (36.0 C):1
Dew Point: 62 F (17 C)
Relative Humidity: 32%
Pressure (altimeter): 29.71 in. Hg (1006 hPa)
ob: OJAQ 101800Z 35012KT CAVOK 36/17 Q1006 NOSIG
cycle: 18

Station Type Date Time Source
OJAQ TAF 2020/08/10 18:21 UTC NOAA

TAF TAF OJAQ 101717Z 1018/1124 36014KT 7000 NSC

Example: see airport list